Tamassee, South Carolina
Current Conditions -  °F | °C
As of 4:54 AM on Thursday 23 Oct 2014 (Local Time) from KCEU Reporting Station
Clear Clear  
Wind Chill:   Ceiling: Unl
Heat Index:   Visibility: 10mi
Dew Point:   Wind: 3mph
Humidity: 85%   Direction: 330°NNW
Pressure: 30.11"   Gusts: NA
Location:  34.88°N, 83.02°W
Report Text: KCEU 230854Z AUTO 33003KT 10SM CLR 07/04 A3011 RMK AO2 SLP191 T00670044 55003
Loading
Personal Weather Stations






























Interactive Weather Map
Tropical Storm Tracking
New forecast layout! Learn more

10-Day Weather Forecast

Advertisements
Track Severe Weather on mobile